sensor_id;sensor_type;location;lat;lon;timestamp;P1;P2;P0
49064;PMS5003;34876;51.464;-0.150;2023-03-13T00:02:00;3;3;
49064;PMS5003;34876;51.464;-0.150;2023-03-13T00:04:31;5;3;
49064;PMS5003;34876;51.464;-0.150;2023-03-13T00:07:00;3;3;
49064;PMS5003;34876;51.464;-0.150;2023-03-13T00:09:54;4;3;
49064;PMS5003;34876;51.464;-0.150;2023-03-13T00:12:27;5;5;
49064;PMS5003;34876;51.464;-0.150;2023-03-13T00:14:56;6;4;
49064;PMS5003;34876;51.464;-0.150;2023-03-13T00:17:25;4;4;
49064;PMS5003;34876;51.464;-0.150;2023-03-13T00:19:55;4;3;
49064;PMS5003;34876;51.464;-0.150;2023-03-13T00:22:29;3;3;
49064;PMS5003;34876;51.464;-0.150;2023-03-13T00:24:59;4;4;
49064;PMS5003;34876;51.464;-0.150;2023-03-13T00:27:31;3;3;
49064;PMS5003;34876;51.464;-0.150;2023-03-13T00:30:02;6;2;
49064;PMS5003;34876;51.464;-0.150;2023-03-13T00:32:32;7;4;
49064;PMS5003;34876;51.464;-0.150;2023-03-13T00:35:03;2;1;
49064;PMS5003;34876;51.464;-0.150;2023-03-13T00:37:33;4;2;
49064;PMS5003;34876;51.464;-0.150;2023-03-13T00:40:09;5;3;
49064;PMS5003;34876;51.464;-0.150;2023-03-13T00:42:39;5;4;
49064;PMS5003;34876;51.464;-0.150;2023-03-13T00:45:08;2;2;
49064;PMS5003;34876;51.464;-0.150;2023-03-13T00:47:39;2;2;
49064;PMS5003;34876;51.464;-0.150;2023-03-13T00:50:08;2;2;
49064;PMS5003;34876;51.464;-0.150;2023-03-13T00:52:38;2;2;
49064;PMS5003;34876;51.464;-0.150;2023-03-13T00:55:08;4;4;
49064;PMS5003;34876;51.464;-0.150;2023-03-13T00:57:37;2;2;
49064;PMS5003;34876;51.464;-0.150;2023-03-13T01:00:07;3;3;
49064;PMS5003;34876;51.464;-0.150;2023-03-13T01:03:29;5;3;
49064;PMS5003;34876;51.464;-0.150;2023-03-13T01:06:00;5;5;
49064;PMS5003;34876;51.464;-0.150;2023-03-13T01:08:31;5;4;
49064;PMS5003;34876;51.464;-0.150;2023-03-13T01:11:02;3;3;
49064;PMS5003;34876;51.464;-0.150;2023-03-13T01:13:33;4;4;
49064;PMS5003;34876;51.464;-0.150;2023-03-13T01:16:05;3;3;
49064;PMS5003;34876;51.464;-0.150;2023-03-13T01:18:37;6;6;
49064;PMS5003;34876;51.464;-0.150;2023-03-13T01:21:08;5;3;
49064;PMS5003;34876;51.464;-0.150;2023-03-13T01:23:38;4;4;
49064;PMS5003;34876;51.464;-0.150;2023-03-13T01:26:08;2;2;
49064;PMS5003;34876;51.464;-0.150;2023-03-13T01:28:38;2;2;
49064;PMS5003;34876;51.464;-0.150;2023-03-13T01:31:09;6;6;
49064;PMS5003;34876;51.464;-0.150;2023-03-13T01:33:46;8;4;
49064;PMS5003;34876;51.464;-0.150;2023-03-13T01:36:17;3;3;
49064;PMS5003;34876;51.464;-0.150;2023-03-13T01:38:49;12;10;
49064;PMS5003;34876;51.464;-0.150;2023-03-13T01:41:20;4;4;
49064;PMS5003;34876;51.464;-0.150;2023-03-13T01:43:50;1;1;
49064;PMS5003;34876;51.464;-0.150;2023-03-13T01:46:21;2;2;
49064;PMS5003;34876;51.464;-0.150;2023-03-13T01:48:51;3;3;
49064;PMS5003;34876;51.464;-0.150;2023-03-13T01:51:26;4;4;
49064;PMS5003;34876;51.464;-0.150;2023-03-13T01:54:02;7;7;
49064;PMS5003;34876;51.464;-0.150;2023-03-13T01:56:37;3;3;
49064;PMS5003;34876;51.464;-0.150;2023-03-13T01:59:11;2;2;
49064;PMS5003;34876;51.464;-0.150;2023-03-13T02:01:44;5;4;
49064;PMS5003;34876;51.464;-0.150;2023-03-13T02:04:15;3;3;
49064;PMS5003;34876;51.464;-0.150;2023-03-13T02:06:48;4;4;
49064;PMS5003;34876;51.464;-0.150;2023-03-13T02:09:22;3;3;
49064;PMS5003;34876;51.464;-0.150;2023-03-13T02:11:56;6;3;
49064;PMS5003;34876;51.464;-0.150;2023-03-13T02:14:31;4;4;
49064;PMS5003;34876;51.464;-0.150;2023-03-13T02:17:03;4;4;
49064;PMS5003;34876;51.464;-0.150;2023-03-13T02:19:35;4;4;
49064;PMS5003;34876;51.464;-0.150;2023-03-13T02:22:12;4;3;
49064;PMS5003;34876;51.464;-0.150;2023-03-13T02:24:48;6;3;
49064;PMS5003;34876;51.464;-0.150;2023-03-13T02:27:25;3;3;
49064;PMS5003;34876;51.464;-0.150;2023-03-13T02:29:55;6;4;
49064;PMS5003;34876;51.464;-0.150;2023-03-13T02:32:26;6;5;
49064;PMS5003;34876;51.464;-0.150;2023-03-13T02:35:01;4;4;
49064;PMS5003;34876;51.464;-0.150;2023-03-13T02:37:35;5;4;
49064;PMS5003;34876;51.464;-0.150;2023-03-13T02:40:08;2;2;
49064;PMS5003;34876;51.464;-0.150;2023-03-13T02:42:42;2;2;
49064;PMS5003;34876;51.464;-0.150;2023-03-13T02:45:14;2;2;
49064;PMS5003;34876;51.464;-0.150;2023-03-13T02:47:45;5;5;
49064;PMS5003;34876;51.464;-0.150;2023-03-13T02:50:13;4;4;
49064;PMS5003;34876;51.464;-0.150;2023-03-13T02:52:44;4;3;
49064;PMS5003;34876;51.464;-0.150;2023-03-13T02:55:15;2;2;
49064;PMS5003;34876;51.464;-0.150;2023-03-13T02:57:50;4;4;
49064;PMS5003;34876;51.464;-0.150;2023-03-13T03:00:19;4;4;
49064;PMS5003;34876;51.464;-0.150;2023-03-13T03:02:48;2;2;
49064;PMS5003;34876;51.464;-0.150;2023-03-13T03:05:16;7;7;
49064;PMS5003;34876;51.464;-0.150;2023-03-13T03:07:45;6;5;
49064;PMS5003;34876;51.464;-0.150;2023-03-13T03:10:14;4;4;
49064;PMS5003;34876;51.464;-0.150;2023-03-13T03:12:46;6;4;
49064;PMS5003;34876;51.464;-0.150;2023-03-13T03:15:15;3;3;
49064;PMS5003;34876;51.464;-0.150;2023-03-13T03:17:45;5;3;
49064;PMS5003;34876;51.464;-0.150;2023-03-13T03:20:14;4;4;
49064;PMS5003;34876;51.464;-0.150;2023-03-13T03:22:45;1;1;
49064;PMS5003;34876;51.464;-0.150;2023-03-13T03:25:14;3;3;
49064;PMS5003;34876;51.464;-0.150;2023-03-13T03:27:43;5;5;
49064;PMS5003;34876;51.464;-0.150;2023-03-13T03:30:17;5;3;
49064;PMS5003;34876;51.464;-0.150;2023-03-13T03:32:47;4;3;
49064;PMS5003;34876;51.464;-0.150;2023-03-13T03:35:17;2;2;
49064;PMS5003;34876;51.464;-0.150;2023-03-13T03:37:46;3;3;
49064;PMS5003;34876;51.464;-0.150;2023-03-13T03:40:16;6;4;
49064;PMS5003;34876;51.464;-0.150;2023-03-13T03:42:46;6;4;
49064;PMS5003;34876;51.464;-0.150;2023-03-13T03:45:15;8;6;
49064;PMS5003;34876;51.464;-0.150;2023-03-13T03:47:44;5;5;
49064;PMS5003;34876;51.464;-0.150;2023-03-13T03:50:13;5;4;
49064;PMS5003;34876;51.464;-0.150;2023-03-13T03:52:43;6;5;
49064;PMS5003;34876;51.464;-0.150;2023-03-13T03:55:12;6;6;
49064;PMS5003;34876;51.464;-0.150;2023-03-13T03:57:40;9;9;
49064;PMS5003;34876;51.464;-0.150;2023-03-13T04:00:10;4;3;
49064;PMS5003;34876;51.464;-0.150;2023-03-13T04:02:40;5;5;
49064;PMS5003;34876;51.464;-0.150;2023-03-13T04:05:09;4;2;
49064;PMS5003;34876;51.464;-0.150;2023-03-13T04:07:38;6;5;
49064;PMS5003;34876;51.464;-0.150;2023-03-13T04:10:13;4;4;
49064;PMS5003;34876;51.464;-0.150;2023-03-13T04:12:42;5;4;
49064;PMS5003;34876;51.464;-0.150;2023-03-13T04:15:12;7;6;
49064;PMS5003;34876;51.464;-0.150;2023-03-13T04:17:41;6;4;
49064;PMS5003;34876;51.464;-0.150;2023-03-13T04:20:10;6;4;
49064;PMS5003;34876;51.464;-0.150;2023-03-13T04:22:40;6;6;
49064;PMS5003;34876;51.464;-0.150;2023-03-13T04:25:10;3;3;
49064;PMS5003;34876;51.464;-0.150;2023-03-13T04:27:39;5;5;
49064;PMS5003;34876;51.464;-0.150;2023-03-13T04:30:09;3;3;
49064;PMS5003;34876;51.464;-0.150;2023-03-13T04:32:40;5;4;
49064;PMS5003;34876;51.464;-0.150;2023-03-13T04:35:09;4;4;
49064;PMS5003;34876;51.464;-0.150;2023-03-13T04:37:38;9;6;
49064;PMS5003;34876;51.464;-0.150;2023-03-13T04:40:08;7;7;
49064;PMS5003;34876;51.464;-0.150;2023-03-13T04:42:40;9;8;
49064;PMS5003;34876;51.464;-0.150;2023-03-13T04:45:10;6;5;
49064;PMS5003;34876;51.464;-0.150;2023-03-13T04:47:40;3;3;
49064;PMS5003;34876;51.464;-0.150;2023-03-13T04:50:09;5;5;
49064;PMS5003;34876;51.464;-0.150;2023-03-13T04:52:39;7;7;
49064;PMS5003;34876;51.464;-0.150;2023-03-13T04:55:08;6;5;
49064;PMS5003;34876;51.464;-0.150;2023-03-13T04:57:37;6;6;
49064;PMS5003;34876;51.464;-0.150;2023-03-13T05:00:07;7;7;
49064;PMS5003;34876;51.464;-0.150;2023-03-13T05:02:38;6;5;
49064;PMS5003;34876;51.464;-0.150;2023-03-13T05:05:12;6;6;
49064;PMS5003;34876;51.464;-0.150;2023-03-13T05:07:43;6;6;
49064;PMS5003;34876;51.464;-0.150;2023-03-13T05:10:13;5;3;
49064;PMS5003;34876;51.464;-0.150;2023-03-13T05:12:42;6;6;
49064;PMS5003;34876;51.464;-0.150;2023-03-13T05:15:11;10;10;
49064;PMS5003;34876;51.464;-0.150;2023-03-13T05:17:41;7;7;
49064;PMS5003;34876;51.464;-0.150;2023-03-13T05:20:11;5;5;
49064;PMS5003;34876;51.464;-0.150;2023-03-13T05:22:41;10;10;
49064;PMS5003;34876;51.464;-0.150;2023-03-13T05:25:10;7;6;
49064;PMS5003;34876;51.464;-0.150;2023-03-13T05:27:40;5;5;
49064;PMS5003;34876;51.464;-0.150;2023-03-13T05:30:11;7;5;
49064;PMS5003;34876;51.464;-0.150;2023-03-13T05:32:40;8;7;
49064;PMS5003;34876;51.464;-0.150;2023-03-13T05:35:10;5;5;
49064;PMS5003;34876;51.464;-0.150;2023-03-13T05:37:41;10;10;
49064;PMS5003;34876;51.464;-0.150;2023-03-13T05:40:12;8;8;
49064;PMS5003;34876;51.464;-0.150;2023-03-13T05:42:43;7;6;
49064;PMS5003;34876;51.464;-0.150;2023-03-13T05:45:13;9;9;
49064;PMS5003;34876;51.464;-0.150;2023-03-13T05:47:43;7;7;
49064;PMS5003;34876;51.464;-0.150;2023-03-13T05:50:12;7;7;
49064;PMS5003;34876;51.464;-0.150;2023-03-13T05:52:42;4;3;
49064;PMS5003;34876;51.464;-0.150;2023-03-13T05:55:11;7;6;
49064;PMS5003;34876;51.464;-0.150;2023-03-13T05:57:43;11;11;
49064;PMS5003;34876;51.464;-0.150;2023-03-13T06:00:13;8;6;
49064;PMS5003;34876;51.464;-0.150;2023-03-13T06:02:45;9;9;
49064;PMS5003;34876;51.464;-0.150;2023-03-13T06:05:14;5;5;
49064;PMS5003;34876;51.464;-0.150;2023-03-13T06:07:42;12;12;
49064;PMS5003;34876;51.464;-0.150;2023-03-13T06:10:11;10;9;
49064;PMS5003;34876;51.464;-0.150;2023-03-13T06:12:41;8;8;
49064;PMS5003;34876;51.464;-0.150;2023-03-13T06:15:10;10;9;
49064;PMS5003;34876;51.464;-0.150;2023-03-13T06:17:39;11;9;
49064;PMS5003;34876;51.464;-0.150;2023-03-13T06:20:09;8;5;
49064;PMS5003;34876;51.464;-0.150;2023-03-13T06:22:39;5;4;
49064;PMS5003;34876;51.464;-0.150;2023-03-13T06:25:09;9;7;
49064;PMS5003;34876;51.464;-0.150;2023-03-13T06:27:39;7;7;
49064;PMS5003;34876;51.464;-0.150;2023-03-13T06:30:10;9;9;
49064;PMS5003;34876;51.464;-0.150;2023-03-13T06:32:39;6;6;
49064;PMS5003;34876;51.464;-0.150;2023-03-13T06:35:09;8;8;
49064;PMS5003;34876;51.464;-0.150;2023-03-13T06:37:38;6;5;
49064;PMS5003;34876;51.464;-0.150;2023-03-13T06:40:08;10;8;
49064;PMS5003;34876;51.464;-0.150;2023-03-13T06:42:39;5;5;
49064;PMS5003;34876;51.464;-0.150;2023-03-13T06:45:09;11;10;
49064;PMS5003;34876;51.464;-0.150;2023-03-13T06:47:39;11;9;
49064;PMS5003;34876;51.464;-0.150;2023-03-13T06:50:09;11;10;
49064;PMS5003;34876;51.464;-0.150;2023-03-13T06:52:40;12;10;
49064;PMS5003;34876;51.464;-0.150;2023-03-13T06:55:10;14;12;
49064;PMS5003;34876;51.464;-0.150;2023-03-13T06:57:40;9;9;
49064;PMS5003;34876;51.464;-0.150;2023-03-13T07:00:10;9;9;
49064;PMS5003;34876;51.464;-0.150;2023-03-13T07:02:40;10;9;
49064;PMS5003;34876;51.464;-0.150;2023-03-13T07:05:09;11;11;
49064;PMS5003;34876;51.464;-0.150;2023-03-13T07:07:43;10;10;
49064;PMS5003;34876;51.464;-0.150;2023-03-13T07:10:12;6;6;
49064;PMS5003;34876;51.464;-0.150;2023-03-13T07:12:42;7;7;
49064;PMS5003;34876;51.464;-0.150;2023-03-13T07:15:11;11;11;
49064;PMS5003;34876;51.464;-0.150;2023-03-13T07:17:40;11;11;
49064;PMS5003;34876;51.464;-0.150;2023-03-13T07:20:10;11;11;
49064;PMS5003;34876;51.464;-0.150;2023-03-13T07:22:40;13;12;
49064;PMS5003;34876;51.464;-0.150;2023-03-13T07:25:10;10;10;
49064;PMS5003;34876;51.464;-0.150;2023-03-13T07:27:40;14;10;
49064;PMS5003;34876;51.464;-0.150;2023-03-13T07:30:10;10;9;
49064;PMS5003;34876;51.464;-0.150;2023-03-13T07:32:39;13;12;
49064;PMS5003;34876;51.464;-0.150;2023-03-13T07:35:10;13;12;
49064;PMS5003;34876;51.464;-0.150;2023-03-13T07:37:39;17;16;
49064;PMS5003;34876;51.464;-0.150;2023-03-13T07:40:10;17;14;
49064;PMS5003;34876;51.464;-0.150;2023-03-13T07:42:41;15;14;
49064;PMS5003;34876;51.464;-0.150;2023-03-13T07:45:10;21;16;
49064;PMS5003;34876;51.464;-0.150;2023-03-13T07:47:40;14;12;
49064;PMS5003;34876;51.464;-0.150;2023-03-13T07:50:10;14;12;
49064;PMS5003;34876;51.464;-0.150;2023-03-13T07:52:40;15;14;
49064;PMS5003;34876;51.464;-0.150;2023-03-13T07:55:09;14;12;
49064;PMS5003;34876;51.464;-0.150;2023-03-13T07:57:39;17;15;
49064;PMS5003;34876;51.464;-0.150;2023-03-13T08:00:11;16;15;
49064;PMS5003;34876;51.464;-0.150;2023-03-13T08:02:40;10;8;
49064;PMS5003;34876;51.464;-0.150;2023-03-13T08:05:09;21;19;
49064;PMS5003;34876;51.464;-0.150;2023-03-13T08:07:38;13;12;
49064;PMS5003;34876;51.464;-0.150;2023-03-13T08:10:08;12;11;
49064;PMS5003;34876;51.464;-0.150;2023-03-13T08:12:38;12;12;
49064;PMS5003;34876;51.464;-0.150;2023-03-13T08:15:07;10;10;
49064;PMS5003;34876;51.464;-0.150;2023-03-13T08:17:42;25;19;
49064;PMS5003;34876;51.464;-0.150;2023-03-13T08:20:12;17;15;
49064;PMS5003;34876;51.464;-0.150;2023-03-13T08:22:41;14;12;
49064;PMS5003;34876;51.464;-0.150;2023-03-13T08:25:10;10;10;
49064;PMS5003;34876;51.464;-0.150;2023-03-13T08:27:40;19;18;
49064;PMS5003;34876;51.464;-0.150;2023-03-13T08:30:10;14;14;
49064;PMS5003;34876;51.464;-0.150;2023-03-13T08:32:40;18;17;
49064;PMS5003;34876;51.464;-0.150;2023-03-13T08:35:09;18;16;
49064;PMS5003;34876;51.464;-0.150;2023-03-13T08:37:39;13;12;
49064;PMS5003;34876;51.464;-0.150;2023-03-13T08:40:09;10;10;
49064;PMS5003;34876;51.464;-0.150;2023-03-13T08:42:39;12;12;
49064;PMS5003;34876;51.464;-0.150;2023-03-13T08:45:09;17;15;
49064;PMS5003;34876;51.464;-0.150;2023-03-13T08:47:38;12;12;
49064;PMS5003;34876;51.464;-0.150;2023-03-13T08:50:08;15;15;
49064;PMS5003;34876;51.464;-0.150;2023-03-13T08:52:38;13;13;
49064;PMS5003;34876;51.464;-0.150;2023-03-13T08:55:07;9;9;
49064;PMS5003;34876;51.464;-0.150;2023-03-13T08:57:36;18;16;
49064;PMS5003;34876;51.464;-0.150;2023-03-13T09:00:06;17;15;
49064;PMS5003;34876;51.464;-0.150;2023-03-13T09:02:36;13;12;
49064;PMS5003;34876;51.464;-0.150;2023-03-13T09:05:05;17;15;
49064;PMS5003;34876;51.464;-0.150;2023-03-13T09:07:35;20;18;
49064;PMS5003;34876;51.464;-0.150;2023-03-13T09:10:05;17;13;
49064;PMS5003;34876;51.464;-0.150;2023-03-13T09:12:37;7;7;
49064;PMS5003;34876;51.464;-0.150;2023-03-13T09:15:06;11;11;
49064;PMS5003;34876;51.464;-0.150;2023-03-13T09:17:37;12;10;
49064;PMS5003;34876;51.464;-0.150;2023-03-13T09:20:06;11;11;
49064;PMS5003;34876;51.464;-0.150;2023-03-13T09:22:36;11;11;
49064;PMS5003;34876;51.464;-0.150;2023-03-13T09:25:06;14;14;
49064;PMS5003;34876;51.464;-0.150;2023-03-13T09:27:35;14;13;
49064;PMS5003;34876;51.464;-0.150;2023-03-13T09:30:06;14;12;
49064;PMS5003;34876;51.464;-0.150;2023-03-13T09:32:37;11;10;
49064;PMS5003;34876;51.464;-0.150;2023-03-13T09:35:06;15;14;
49064;PMS5003;34876;51.464;-0.150;2023-03-13T09:37:35;11;7;
49064;PMS5003;34876;51.464;-0.150;2023-03-13T09:40:04;14;13;
49064;PMS5003;34876;51.464;-0.150;2023-03-13T09:42:38;12;12;
49064;PMS5003;34876;51.464;-0.150;2023-03-13T09:45:15;14;14;
49064;PMS5003;34876;51.464;-0.150;2023-03-13T09:47:51;16;13;
49064;PMS5003;34876;51.464;-0.150;2023-03-13T09:50:24;13;12;
49064;PMS5003;34876;51.464;-0.150;2023-03-13T09:52:58;11;10;
49064;PMS5003;34876;51.464;-0.150;2023-03-13T09:55:33;13;11;
49064;PMS5003;34876;51.464;-0.150;2023-03-13T09:58:09;12;11;
49064;PMS5003;34876;51.464;-0.150;2023-03-13T10:00:43;11;10;
49064;PMS5003;34876;51.464;-0.150;2023-03-13T10:03:17;10;10;
49064;PMS5003;34876;51.464;-0.150;2023-03-13T10:05:51;14;12;
49064;PMS5003;34876;51.464;-0.150;2023-03-13T10:08:22;16;14;
49064;PMS5003;34876;51.464;-0.150;2023-03-13T10:10:54;18;15;
49064;PMS5003;34876;51.464;-0.150;2023-03-13T10:13:33;15;12;
49064;PMS5003;34876;51.464;-0.150;2023-03-13T10:16:07;15;14;
49064;PMS5003;34876;51.464;-0.150;2023-03-13T10:18:39;15;11;
49064;PMS5003;34876;51.464;-0.150;2023-03-13T10:21:16;11;11;
49064;PMS5003;34876;51.464;-0.150;2023-03-13T10:23:48;11;9;
49064;PMS5003;34876;51.464;-0.150;2023-03-13T10:26:22;12;10;
49064;PMS5003;34876;51.464;-0.150;2023-03-13T10:28:55;16;14;
49064;PMS5003;34876;51.464;-0.150;2023-03-13T10:31:25;10;9;
49064;PMS5003;34876;51.464;-0.150;2023-03-13T10:34:08;13;13;
49064;PMS5003;34876;51.464;-0.150;2023-03-13T10:36:38;10;10;
49064;PMS5003;34876;51.464;-0.150;2023-03-13T10:39:13;11;10;
49064;PMS5003;34876;51.464;-0.150;2023-03-13T10:41:43;11;11;
49064;PMS5003;34876;51.464;-0.150;2023-03-13T10:44:14;10;10;
49064;PMS5003;34876;51.464;-0.150;2023-03-13T10:46:45;12;10;
49064;PMS5003;34876;51.464;-0.150;2023-03-13T10:49:18;13;12;
49064;PMS5003;34876;51.464;-0.150;2023-03-13T10:51:49;12;12;
49064;PMS5003;34876;51.464;-0.150;2023-03-13T10:54:20;13;13;
49064;PMS5003;34876;51.464;-0.150;2023-03-13T10:56:51;12;11;
49064;PMS5003;34876;51.464;-0.150;2023-03-13T10:59:38;11;9;
49064;PMS5003;34876;51.464;-0.150;2023-03-13T11:02:20;15;13;
49064;PMS5003;34876;51.464;-0.150;2023-03-13T11:04:53;10;9;
49064;PMS5003;34876;51.464;-0.150;2023-03-13T11:07:25;8;7;
49064;PMS5003;34876;51.464;-0.150;2023-03-13T11:09:57;10;8;
49064;PMS5003;34876;51.464;-0.150;2023-03-13T11:12:28;8;7;
49064;PMS5003;34876;51.464;-0.150;2023-03-13T11:15:02;6;6;
49064;PMS5003;34876;51.464;-0.150;2023-03-13T11:17:40;12;11;
49064;PMS5003;34876;51.464;-0.150;2023-03-13T11:20:13;9;9;
49064;PMS5003;34876;51.464;-0.150;2023-03-13T11:22:54;10;8;
49064;PMS5003;34876;51.464;-0.150;2023-03-13T11:25:32;9;9;
49064;PMS5003;34876;51.464;-0.150;2023-03-13T11:28:12;10;8;
49064;PMS5003;34876;51.464;-0.150;2023-03-13T11:30:54;12;8;
49064;PMS5003;34876;51.464;-0.150;2023-03-13T11:33:36;9;9;
49064;PMS5003;34876;51.464;-0.150;2023-03-13T11:36:14;6;6;
49064;PMS5003;34876;51.464;-0.150;2023-03-13T11:38:48;9;9;
49064;PMS5003;34876;51.464;-0.150;2023-03-13T11:41:27;7;7;
49064;PMS5003;34876;51.464;-0.150;2023-03-13T11:44:15;9;6;
49064;PMS5003;34876;51.464;-0.150;2023-03-13T11:46:54;10;8;
49064;PMS5003;34876;51.464;-0.150;2023-03-13T11:49:38;12;11;
49064;PMS5003;34876;51.464;-0.150;2023-03-13T11:52:20;9;7;
49064;PMS5003;34876;51.464;-0.150;2023-03-13T11:55:10;8;7;
49064;PMS5003;34876;51.464;-0.150;2023-03-13T11:57:54;6;6;
49064;PMS5003;34876;51.464;-0.150;2023-03-13T12:00:32;8;7;
49064;PMS5003;34876;51.464;-0.150;2023-03-13T12:03:10;7;5;
49064;PMS5003;34876;51.464;-0.150;2023-03-13T12:05:43;8;7;
49064;PMS5003;34876;51.464;-0.150;2023-03-13T12:08:17;7;5;
49064;PMS5003;34876;51.464;-0.150;2023-03-13T12:10:52;8;7;
49064;PMS5003;34876;51.464;-0.150;2023-03-13T12:13:30;7;6;
49064;PMS5003;34876;51.464;-0.150;2023-03-13T12:16:08;7;6;
49064;PMS5003;34876;51.464;-0.150;2023-03-13T12:18:41;6;6;
49064;PMS5003;34876;51.464;-0.150;2023-03-13T12:21:18;6;5;
49064;PMS5003;34876;51.464;-0.150;2023-03-13T12:23:56;6;5;
49064;PMS5003;34876;51.464;-0.150;2023-03-13T12:26:33;6;6;
49064;PMS5003;34876;51.464;-0.150;2023-03-13T12:29:12;7;7;
49064;PMS5003;34876;51.464;-0.150;2023-03-13T12:31:47;4;4;
49064;PMS5003;34876;51.464;-0.150;2023-03-13T12:34:25;10;7;
49064;PMS5003;34876;51.464;-0.150;2023-03-13T12:37:00;5;5;
49064;PMS5003;34876;51.464;-0.150;2023-03-13T12:39:38;6;6;
49064;PMS5003;34876;51.464;-0.150;2023-03-13T12:42:16;9;9;
49064;PMS5003;34876;51.464;-0.150;2023-03-13T12:44:54;8;7;
49064;PMS5003;34876;51.464;-0.150;2023-03-13T12:47:26;5;5;
49064;PMS5003;34876;51.464;-0.150;2023-03-13T12:50:04;6;4;
49064;PMS5003;34876;51.464;-0.150;2023-03-13T12:52:46;6;6;
49064;PMS5003;34876;51.464;-0.150;2023-03-13T12:57:50;5;4;
49064;PMS5003;34876;51.464;-0.150;2023-03-13T13:00:44;6;6;
49064;PMS5003;34876;51.464;-0.150;2023-03-13T13:03:20;6;5;
49064;PMS5003;34876;51.464;-0.150;2023-03-13T13:05:58;6;6;
49064;PMS5003;34876;51.464;-0.150;2023-03-13T13:08:34;5;5;
49064;PMS5003;34876;51.464;-0.150;2023-03-13T13:11:42;8;7;
49064;PMS5003;34876;51.464;-0.150;2023-03-13T13:15:04;7;3;
49064;PMS5003;34876;51.464;-0.150;2023-03-13T13:17:49;6;5;
49064;PMS5003;34876;51.464;-0.150;2023-03-13T13:20:32;7;5;
49064;PMS5003;34876;51.464;-0.150;2023-03-13T13:23:38;7;5;
49064;PMS5003;34876;51.464;-0.150;2023-03-13T13:26:36;4;4;
49064;PMS5003;34876;51.464;-0.150;2023-03-13T13:29:57;5;4;
49064;PMS5003;34876;51.464;-0.150;2023-03-13T13:32:30;7;5;
49064;PMS5003;34876;51.464;-0.150;2023-03-13T13:35:41;8;7;
49064;PMS5003;34876;51.464;-0.150;2023-03-13T13:38:27;5;4;
49064;PMS5003;34876;51.464;-0.150;2023-03-13T13:40:58;6;6;
49064;PMS5003;34876;51.464;-0.150;2023-03-13T13:43:31;6;6;
49064;PMS5003;34876;51.464;-0.150;2023-03-13T13:46:03;6;5;
49064;PMS5003;34876;51.464;-0.150;2023-03-13T13:48:35;5;5;
49064;PMS5003;34876;51.464;-0.150;2023-03-13T13:51:18;5;4;
49064;PMS5003;34876;51.464;-0.150;2023-03-13T13:53:52;3;2;
49064;PMS5003;34876;51.464;-0.150;2023-03-13T13:56:33;3;2;
49064;PMS5003;34876;51.464;-0.150;2023-03-13T13:59:15;4;4;
49064;PMS5003;34876;51.464;-0.150;2023-03-13T14:02:13;5;2;
49064;PMS5003;34876;51.464;-0.150;2023-03-13T14:04:48;6;5;
49064;PMS5003;34876;51.464;-0.150;2023-03-13T14:07:24;5;5;
49064;PMS5003;34876;51.464;-0.150;2023-03-13T14:10:05;6;6;
49064;PMS5003;34876;51.464;-0.150;2023-03-13T14:12:45;5;4;
49064;PMS5003;34876;51.464;-0.150;2023-03-13T14:15:20;5;5;
49064;PMS5003;34876;51.464;-0.150;2023-03-13T14:17:50;6;5;
49064;PMS5003;34876;51.464;-0.150;2023-03-13T14:20:23;7;7;
49064;PMS5003;34876;51.464;-0.150;2023-03-13T14:22:56;3;3;
49064;PMS5003;34876;51.464;-0.150;2023-03-13T14:25:27;5;5;
49064;PMS5003;34876;51.464;-0.150;2023-03-13T14:28:17;4;4;
49064;PMS5003;34876;51.464;-0.150;2023-03-13T14:30:49;4;4;
49064;PMS5003;34876;51.464;-0.150;2023-03-13T14:33:23;7;5;
49064;PMS5003;34876;51.464;-0.150;2023-03-13T14:35:54;3;3;
49064;PMS5003;34876;51.464;-0.150;2023-03-13T14:38:24;5;4;
49064;PMS5003;34876;51.464;-0.150;2023-03-13T14:40:55;4;3;
49064;PMS5003;34876;51.464;-0.150;2023-03-13T14:43:28;6;5;
49064;PMS5003;34876;51.464;-0.150;2023-03-13T14:45:59;5;4;
49064;PMS5003;34876;51.464;-0.150;2023-03-13T14:48:40;2;2;
49064;PMS5003;34876;51.464;-0.150;2023-03-13T14:51:09;6;4;
49064;PMS5003;34876;51.464;-0.150;2023-03-13T14:53:55;5;5;
49064;PMS5003;34876;51.464;-0.150;2023-03-13T14:56:30;4;4;
49064;PMS5003;34876;51.464;-0.150;2023-03-13T14:59:05;4;3;
49064;PMS5003;34876;51.464;-0.150;2023-03-13T15:01:43;6;5;
49064;PMS5003;34876;51.464;-0.150;2023-03-13T15:04:14;4;4;
49064;PMS5003;34876;51.464;-0.150;2023-03-13T15:06:43;6;5;
49064;PMS5003;34876;51.464;-0.150;2023-03-13T15:09:16;4;4;
49064;PMS5003;34876;51.464;-0.150;2023-03-13T15:11:55;4;4;
49064;PMS5003;34876;51.464;-0.150;2023-03-13T15:14:30;3;3;
49064;PMS5003;34876;51.464;-0.150;2023-03-13T15:17:01;3;3;
49064;PMS5003;34876;51.464;-0.150;2023-03-13T15:19:31;4;4;
49064;PMS5003;34876;51.464;-0.150;2023-03-13T15:22:00;5;4;
49064;PMS5003;34876;51.464;-0.150;2023-03-13T15:24:30;3;3;
49064;PMS5003;34876;51.464;-0.150;2023-03-13T15:26:59;4;4;
49064;PMS5003;34876;51.464;-0.150;2023-03-13T15:29:28;4;3;
49064;PMS5003;34876;51.464;-0.150;2023-03-13T15:31:57;4;4;
49064;PMS5003;34876;51.464;-0.150;2023-03-13T15:34:25;3;2;
49064;PMS5003;34876;51.464;-0.150;2023-03-13T15:36:54;3;2;
49064;PMS5003;34876;51.464;-0.150;2023-03-13T15:39:23;1;1;
49064;PMS5003;34876;51.464;-0.150;2023-03-13T15:41:53;3;3;
49064;PMS5003;34876;51.464;-0.150;2023-03-13T15:44:23;4;4;
49064;PMS5003;34876;51.464;-0.150;2023-03-13T15:46:52;5;4;
49064;PMS5003;34876;51.464;-0.150;2023-03-13T15:49:21;3;3;
49064;PMS5003;34876;51.464;-0.150;2023-03-13T15:51:51;5;5;
49064;PMS5003;34876;51.464;-0.150;2023-03-13T15:54:21;2;2;
49064;PMS5003;34876;51.464;-0.150;2023-03-13T15:56:52;5;5;
49064;PMS5003;34876;51.464;-0.150;2023-03-13T15:59:21;4;4;
49064;PMS5003;34876;51.464;-0.150;2023-03-13T16:01:50;2;2;
49064;PMS5003;34876;51.464;-0.150;2023-03-13T16:04:22;2;2;
49064;PMS5003;34876;51.464;-0.150;2023-03-13T16:06:51;5;5;
49064;PMS5003;34876;51.464;-0.150;2023-03-13T16:09:21;4;4;
49064;PMS5003;34876;51.464;-0.150;2023-03-13T16:11:50;3;3;
49064;PMS5003;34876;51.464;-0.150;2023-03-13T16:14:20;2;2;
49064;PMS5003;34876;51.464;-0.150;2023-03-13T16:16:49;4;4;
49064;PMS5003;34876;51.464;-0.150;2023-03-13T16:19:18;4;3;
49064;PMS5003;34876;51.464;-0.150;2023-03-13T16:21:47;4;3;
49064;PMS5003;34876;51.464;-0.150;2023-03-13T16:24:17;2;2;
49064;PMS5003;34876;51.464;-0.150;2023-03-13T16:26:47;3;2;
49064;PMS5003;34876;51.464;-0.150;2023-03-13T16:29:17;6;6;
49064;PMS5003;34876;51.464;-0.150;2023-03-13T16:31:46;2;2;
49064;PMS5003;34876;51.464;-0.150;2023-03-13T16:34:15;2;2;
49064;PMS5003;34876;51.464;-0.150;2023-03-13T16:36:44;5;3;
49064;PMS5003;34876;51.464;-0.150;2023-03-13T16:39:14;4;4;
49064;PMS5003;34876;51.464;-0.150;2023-03-13T16:41:44;5;3;
49064;PMS5003;34876;51.464;-0.150;2023-03-13T16:44:13;4;4;
49064;PMS5003;34876;51.464;-0.150;2023-03-13T16:46:43;5;5;
49064;PMS5003;34876;51.464;-0.150;2023-03-13T16:49:13;3;3;
49064;PMS5003;34876;51.464;-0.150;2023-03-13T16:51:42;3;1;
49064;PMS5003;34876;51.464;-0.150;2023-03-13T16:54:12;4;4;
49064;PMS5003;34876;51.464;-0.150;2023-03-13T16:56:41;2;2;
49064;PMS5003;34876;51.464;-0.150;2023-03-13T16:59:11;3;3;
49064;PMS5003;34876;51.464;-0.150;2023-03-13T17:01:42;3;3;
49064;PMS5003;34876;51.464;-0.150;2023-03-13T17:04:12;4;3;
49064;PMS5003;34876;51.464;-0.150;2023-03-13T17:06:42;3;3;